sensor_id;sensor_type;location;lat;lon;timestamp;temperature;humidity
13673;DHT22;6909;52.202;9.876;2023-02-28T00:01:40;-0.10;1.00
13673;DHT22;6909;52.202;9.876;2023-02-28T00:04:07;0.00;1.00
13673;DHT22;6909;52.202;9.876;2023-02-28T00:06:34;0.00;1.00
13673;DHT22;6909;52.202;9.876;2023-02-28T00:09:01;0.00;1.00
13673;DHT22;6909;52.202;9.876;2023-02-28T00:11:29;0.00;1.00
13673;DHT22;6909;52.202;9.876;2023-02-28T00:13:56;-0.10;1.00
13673;DHT22;6909;52.202;9.876;2023-02-28T00:16:22;-0.10;1.00
13673;DHT22;6909;52.202;9.876;2023-02-28T00:18:50;-0.20;1.00
13673;DHT22;6909;52.202;9.876;2023-02-28T00:21:18;-0.30;1.00
13673;DHT22;6909;52.202;9.876;2023-02-28T00:23:45;-0.30;1.00
13673;DHT22;6909;52.202;9.876;2023-02-28T00:26:12;-0.30;1.00
13673;DHT22;6909;52.202;9.876;2023-02-28T00:28:40;-0.40;1.00
13673;DHT22;6909;52.202;9.876;2023-02-28T00:31:07;-0.40;1.00
13673;DHT22;6909;52.202;9.876;2023-02-28T00:33:33;-0.50;1.00
13673;DHT22;6909;52.202;9.876;2023-02-28T00:36:04;-0.60;1.00
13673;DHT22;6909;52.202;9.876;2023-02-28T00:38:31;-0.70;1.00
13673;DHT22;6909;52.202;9.876;2023-02-28T00:40:58;-0.70;1.00
13673;DHT22;6909;52.202;9.876;2023-02-28T00:43:30;-0.70;1.00
13673;DHT22;6909;52.202;9.876;2023-02-28T00:45:58;-0.80;1.00
13673;DHT22;6909;52.202;9.876;2023-02-28T00:48:25;-0.90;1.00
13673;DHT22;6909;52.202;9.876;2023-02-28T00:50:51;-1.00;1.00
13673;DHT22;6909;52.202;9.876;2023-02-28T00:53:18;-1.20;1.00
13673;DHT22;6909;52.202;9.876;2023-02-28T00:55:45;-1.30;1.00
13673;DHT22;6909;52.202;9.876;2023-02-28T00:58:11;-1.40;1.00
13673;DHT22;6909;52.202;9.876;2023-02-28T01:00:38;-1.50;1.00
13673;DHT22;6909;52.202;9.876;2023-02-28T01:03:06;-1.60;1.00
13673;DHT22;6909;52.202;9.876;2023-02-28T01:05:32;-1.70;1.00
13673;DHT22;6909;52.202;9.876;2023-02-28T01:07:59;-1.70;1.00
13673;DHT22;6909;52.202;9.876;2023-02-28T01:10:28;-1.80;1.00
13673;DHT22;6909;52.202;9.876;2023-02-28T01:12:56;-1.80;1.00
13673;DHT22;6909;52.202;9.876;2023-02-28T01:15:23;-1.80;99.90
13673;DHT22;6909;52.202;9.876;2023-02-28T01:17:50;-1.90;1.00
13673;DHT22;6909;52.202;9.876;2023-02-28T01:20:18;-2.00;99.90
13673;DHT22;6909;52.202;9.876;2023-02-28T01:22:47;-2.10;99.90
13673;DHT22;6909;52.202;9.876;2023-02-28T01:25:14;-2.20;99.90
13673;DHT22;6909;52.202;9.876;2023-02-28T01:27:41;-2.10;1.00
13673;DHT22;6909;52.202;9.876;2023-02-28T01:30:09;-2.10;1.00
13673;DHT22;6909;52.202;9.876;2023-02-28T01:32:36;-2.20;1.00
13673;DHT22;6909;52.202;9.876;2023-02-28T01:35:03;-2.30;1.00
13673;DHT22;6909;52.202;9.876;2023-02-28T01:37:31;-2.30;1.00
13673;DHT22;6909;52.202;9.876;2023-02-28T01:39:57;-2.20;1.00
13673;DHT22;6909;52.202;9.876;2023-02-28T01:42:24;-2.10;1.00
13673;DHT22;6909;52.202;9.876;2023-02-28T01:45:01;-2.20;1.00
13673;DHT22;6909;52.202;9.876;2023-02-28T01:47:31;-2.30;1.00
13673;DHT22;6909;52.202;9.876;2023-02-28T01:50:01;-2.20;1.00
13673;DHT22;6909;52.202;9.876;2023-02-28T01:52:28;-2.20;1.00
13673;DHT22;6909;52.202;9.876;2023-02-28T01:54:58;-2.10;1.00
13673;DHT22;6909;52.202;9.876;2023-02-28T01:57:30;-2.20;1.00
13673;DHT22;6909;52.202;9.876;2023-02-28T02:00:08;-2.30;1.00
13673;DHT22;6909;52.202;9.876;2023-02-28T02:02:36;-2.30;1.00
13673;DHT22;6909;52.202;9.876;2023-02-28T02:05:05;-2.40;1.00
13673;DHT22;6909;52.202;9.876;2023-02-28T02:07:35;-2.50;1.00
13673;DHT22;6909;52.202;9.876;2023-02-28T02:10:10;-2.60;1.00
13673;DHT22;6909;52.202;9.876;2023-02-28T02:13:02;-2.60;1.00
13673;DHT22;6909;52.202;9.876;2023-02-28T02:15:34;-2.60;1.00
13673;DHT22;6909;52.202;9.876;2023-02-28T02:18:07;-2.50;15.10
13673;DHT22;6909;52.202;9.876;2023-02-28T02:24:11;-2.50;99.90
13673;DHT22;6909;52.202;9.876;2023-02-28T02:27:09;-2.40;99.90
13673;DHT22;6909;52.202;9.876;2023-02-28T02:29:55;-2.40;99.90
13673;DHT22;6909;52.202;9.876;2023-02-28T02:32:47;-2.40;99.90
13673;DHT22;6909;52.202;9.876;2023-02-28T02:35:26;-2.40;99.90
13673;DHT22;6909;52.202;9.876;2023-02-28T02:38:01;-2.40;99.90
13673;DHT22;6909;52.202;9.876;2023-02-28T02:40:35;-2.40;99.90
13673;DHT22;6909;52.202;9.876;2023-02-28T02:43:08;-2.50;99.90
13673;DHT22;6909;52.202;9.876;2023-02-28T02:45:39;-2.60;99.90
13673;DHT22;6909;52.202;9.876;2023-02-28T02:48:09;-2.80;99.90
13673;DHT22;6909;52.202;9.876;2023-02-28T02:50:42;-2.90;99.90
13673;DHT22;6909;52.202;9.876;2023-02-28T02:53:11;-3.00;99.90
13673;DHT22;6909;52.202;9.876;2023-02-28T02:55:42;-3.00;99.90
13673;DHT22;6909;52.202;9.876;2023-02-28T02:58:13;-2.90;99.90
13673;DHT22;6909;52.202;9.876;2023-02-28T03:00:43;-2.90;1.00
13673;DHT22;6909;52.202;9.876;2023-02-28T03:03:12;-2.90;1.00
13673;DHT22;6909;52.202;9.876;2023-02-28T03:05:46;-2.80;1.00
13673;DHT22;6909;52.202;9.876;2023-02-28T03:08:12;-2.80;1.00
13673;DHT22;6909;52.202;9.876;2023-02-28T03:10:44;-2.70;1.00
13673;DHT22;6909;52.202;9.876;2023-02-28T03:16:38;-2.70;1.00
13673;DHT22;6909;52.202;9.876;2023-02-28T03:19:32;-2.80;1.00
13673;DHT22;6909;52.202;9.876;2023-02-28T03:22:23;-2.90;1.00
13673;DHT22;6909;52.202;9.876;2023-02-28T03:24:58;-3.00;1.00
13673;DHT22;6909;52.202;9.876;2023-02-28T03:27:29;-3.00;1.00
13673;DHT22;6909;52.202;9.876;2023-02-28T03:30:00;-3.00;1.00
13673;DHT22;6909;52.202;9.876;2023-02-28T03:32:32;-3.00;1.00
13673;DHT22;6909;52.202;9.876;2023-02-28T03:35:02;-2.90;1.00
13673;DHT22;6909;52.202;9.876;2023-02-28T03:37:35;-2.90;1.00
13673;DHT22;6909;52.202;9.876;2023-02-28T03:40:06;-2.90;1.00
13673;DHT22;6909;52.202;9.876;2023-02-28T03:42:39;-3.00;1.00
13673;DHT22;6909;52.202;9.876;2023-02-28T03:45:11;-3.00;1.00
13673;DHT22;6909;52.202;9.876;2023-02-28T03:47:40;-3.00;1.00
13673;DHT22;6909;52.202;9.876;2023-02-28T03:50:12;-3.00;1.00
13673;DHT22;6909;52.202;9.876;2023-02-28T03:52:46;-3.00;1.00
13673;DHT22;6909;52.202;9.876;2023-02-28T03:55:14;-3.00;1.00
13673;DHT22;6909;52.202;9.876;2023-02-28T03:57:49;-3.00;1.00
13673;DHT22;6909;52.202;9.876;2023-02-28T04:00:20;-3.10;1.00
13673;DHT22;6909;52.202;9.876;2023-02-28T04:02:47;-3.10;1.00
13673;DHT22;6909;52.202;9.876;2023-02-28T04:05:18;-3.10;1.00
13673;DHT22;6909;52.202;9.876;2023-02-28T04:07:46;-3.10;1.00
13673;DHT22;6909;52.202;9.876;2023-02-28T04:10:14;-3.00;1.00
13673;DHT22;6909;52.202;9.876;2023-02-28T04:12:41;-3.10;99.90
13673;DHT22;6909;52.202;9.876;2023-02-28T04:15:08;-3.10;1.00
13673;DHT22;6909;52.202;9.876;2023-02-28T04:17:35;-3.10;99.90
13673;DHT22;6909;52.202;9.876;2023-02-28T04:20:02;-3.10;99.90
13673;DHT22;6909;52.202;9.876;2023-02-28T04:22:35;-3.20;99.90
13673;DHT22;6909;52.202;9.876;2023-02-28T04:25:03;-3.20;99.90
13673;DHT22;6909;52.202;9.876;2023-02-28T04:27:31;-3.20;99.90
13673;DHT22;6909;52.202;9.876;2023-02-28T04:29:57;-3.20;99.90
13673;DHT22;6909;52.202;9.876;2023-02-28T04:32:24;-3.10;1.00
13673;DHT22;6909;52.202;9.876;2023-02-28T04:34:50;-3.10;1.00
13673;DHT22;6909;52.202;9.876;2023-02-28T04:37:17;-3.20;99.90
13673;DHT22;6909;52.202;9.876;2023-02-28T04:39:44;-3.20;99.90
13673;DHT22;6909;52.202;9.876;2023-02-28T04:42:12;-3.10;1.00
13673;DHT22;6909;52.202;9.876;2023-02-28T04:44:39;-3.00;1.00
13673;DHT22;6909;52.202;9.876;2023-02-28T04:47:05;-2.90;1.00
13673;DHT22;6909;52.202;9.876;2023-02-28T04:49:33;-2.80;1.00
13673;DHT22;6909;52.202;9.876;2023-02-28T04:51:59;-2.80;1.00
13673;DHT22;6909;52.202;9.876;2023-02-28T04:54:26;-2.70;1.00
13673;DHT22;6909;52.202;9.876;2023-02-28T04:56:53;-2.70;1.00
13673;DHT22;6909;52.202;9.876;2023-02-28T04:59:21;-2.60;1.00
13673;DHT22;6909;52.202;9.876;2023-02-28T05:01:49;-2.50;1.00
13673;DHT22;6909;52.202;9.876;2023-02-28T05:04:16;-2.30;1.00
13673;DHT22;6909;52.202;9.876;2023-02-28T05:06:43;-2.10;1.00
13673;DHT22;6909;52.202;9.876;2023-02-28T05:09:10;-2.10;1.00
13673;DHT22;6909;52.202;9.876;2023-02-28T05:11:37;-2.00;1.00
13673;DHT22;6909;52.202;9.876;2023-02-28T05:14:06;-1.90;1.00
13673;DHT22;6909;52.202;9.876;2023-02-28T05:16:34;-1.90;1.00
13673;DHT22;6909;52.202;9.876;2023-02-28T05:19:01;-1.80;99.90
13673;DHT22;6909;52.202;9.876;2023-02-28T05:21:29;-1.80;99.90
13673;DHT22;6909;52.202;9.876;2023-02-28T05:23:58;-1.70;99.90
13673;DHT22;6909;52.202;9.876;2023-02-28T05:26:26;-1.70;99.90
13673;DHT22;6909;52.202;9.876;2023-02-28T05:28:53;-1.70;99.90
13673;DHT22;6909;52.202;9.876;2023-02-28T05:31:19;-1.80;99.90
13673;DHT22;6909;52.202;9.876;2023-02-28T05:33:47;-1.90;99.90
13673;DHT22;6909;52.202;9.876;2023-02-28T05:36:14;-2.00;99.90
13673;DHT22;6909;52.202;9.876;2023-02-28T05:38:40;-2.10;99.90
13673;DHT22;6909;52.202;9.876;2023-02-28T05:41:08;-2.20;99.90
13673;DHT22;6909;52.202;9.876;2023-02-28T05:43:35;-2.40;99.90
13673;DHT22;6909;52.202;9.876;2023-02-28T05:46:03;-2.40;99.90
13673;DHT22;6909;52.202;9.876;2023-02-28T05:48:30;-2.50;99.90
13673;DHT22;6909;52.202;9.876;2023-02-28T05:50:58;-2.60;99.90
13673;DHT22;6909;52.202;9.876;2023-02-28T05:53:25;-2.70;99.90
13673;DHT22;6909;52.202;9.876;2023-02-28T05:55:52;-2.70;99.90
13673;DHT22;6909;52.202;9.876;2023-02-28T05:58:18;-2.80;99.90
13673;DHT22;6909;52.202;9.876;2023-02-28T06:00:45;-2.90;99.90
13673;DHT22;6909;52.202;9.876;2023-02-28T06:03:12;-3.00;99.90
13673;DHT22;6909;52.202;9.876;2023-02-28T06:05:38;-3.00;99.90
13673;DHT22;6909;52.202;9.876;2023-02-28T06:08:06;-3.10;99.90
13673;DHT22;6909;52.202;9.876;2023-02-28T06:10:33;-3.20;99.90
13673;DHT22;6909;52.202;9.876;2023-02-28T06:13:00;-3.20;99.90
13673;DHT22;6909;52.202;9.876;2023-02-28T06:15:27;-3.20;1.00
13673;DHT22;6909;52.202;9.876;2023-02-28T06:17:54;-3.10;1.00
13673;DHT22;6909;52.202;9.876;2023-02-28T06:20:22;-3.20;1.00
13673;DHT22;6909;52.202;9.876;2023-02-28T06:22:49;-3.10;1.00
13673;DHT22;6909;52.202;9.876;2023-02-28T06:25:18;-3.10;1.00
13673;DHT22;6909;52.202;9.876;2023-02-28T06:27:44;-3.10;1.00
13673;DHT22;6909;52.202;9.876;2023-02-28T06:30:12;-3.00;1.00
13673;DHT22;6909;52.202;9.876;2023-02-28T06:32:38;-2.90;1.00
13673;DHT22;6909;52.202;9.876;2023-02-28T06:35:05;-2.90;1.00
13673;DHT22;6909;52.202;9.876;2023-02-28T06:37:32;-2.90;1.00
13673;DHT22;6909;52.202;9.876;2023-02-28T06:40:01;-2.90;1.00
13673;DHT22;6909;52.202;9.876;2023-02-28T06:42:29;-2.90;1.00
13673;DHT22;6909;52.202;9.876;2023-02-28T06:44:56;-2.90;1.00
13673;DHT22;6909;52.202;9.876;2023-02-28T06:47:23;-2.80;1.00
13673;DHT22;6909;52.202;9.876;2023-02-28T06:49:50;-2.80;1.00
13673;DHT22;6909;52.202;9.876;2023-02-28T06:52:17;-2.60;1.00
13673;DHT22;6909;52.202;9.876;2023-02-28T06:54:43;-2.60;1.00
13673;DHT22;6909;52.202;9.876;2023-02-28T06:57:10;-2.60;1.00
13673;DHT22;6909;52.202;9.876;2023-02-28T06:59:38;-2.50;1.00
13673;DHT22;6909;52.202;9.876;2023-02-28T07:02:05;-2.30;1.00
13673;DHT22;6909;52.202;9.876;2023-02-28T07:04:32;-2.20;1.00
13673;DHT22;6909;52.202;9.876;2023-02-28T07:06:59;-2.00;1.00
13673;DHT22;6909;52.202;9.876;2023-02-28T07:09:25;-1.90;1.00
13673;DHT22;6909;52.202;9.876;2023-02-28T07:11:55;-1.70;1.00
13673;DHT22;6909;52.202;9.876;2023-02-28T07:14:21;-1.50;1.00
13673;DHT22;6909;52.202;9.876;2023-02-28T07:16:49;-1.30;1.00
13673;DHT22;6909;52.202;9.876;2023-02-28T07:19:16;-1.00;1.00
13673;DHT22;6909;52.202;9.876;2023-02-28T07:21:43;-0.60;1.00
13673;DHT22;6909;52.202;9.876;2023-02-28T07:24:10;0.80;1.00
13673;DHT22;6909;52.202;9.876;2023-02-28T07:26:37;3.00;99.90
13673;DHT22;6909;52.202;9.876;2023-02-28T07:29:03;5.30;1.00
13673;DHT22;6909;52.202;9.876;2023-02-28T07:31:30;6.70;99.90
13673;DHT22;6909;52.202;9.876;2023-02-28T07:34:01;7.00;99.90
13673;DHT22;6909;52.202;9.876;2023-02-28T07:36:28;8.70;99.90
13673;DHT22;6909;52.202;9.876;2023-02-28T07:38:55;10.20;99.90
13673;DHT22;6909;52.202;9.876;2023-02-28T07:41:22;11.00;99.90
13673;DHT22;6909;52.202;9.876;2023-02-28T07:43:53;8.80;99.90
13673;DHT22;6909;52.202;9.876;2023-02-28T07:46:20;8.00;99.90
13673;DHT22;6909;52.202;9.876;2023-02-28T07:48:46;8.60;99.90
13673;DHT22;6909;52.202;9.876;2023-02-28T07:51:14;9.20;99.90
13673;DHT22;6909;52.202;9.876;2023-02-28T07:53:41;9.10;99.90
13673;DHT22;6909;52.202;9.876;2023-02-28T07:56:08;9.70;99.90
13673;DHT22;6909;52.202;9.876;2023-02-28T07:58:36;11.20;99.90
13673;DHT22;6909;52.202;9.876;2023-02-28T08:01:06;12.60;99.90
13673;DHT22;6909;52.202;9.876;2023-02-28T08:03:33;13.90;99.90
13673;DHT22;6909;52.202;9.876;2023-02-28T08:06:00;14.30;99.90
13673;DHT22;6909;52.202;9.876;2023-02-28T08:08:29;13.50;99.90
13673;DHT22;6909;52.202;9.876;2023-02-28T08:10:58;12.80;99.90
13673;DHT22;6909;52.202;9.876;2023-02-28T08:13:25;12.30;99.90
13673;DHT22;6909;52.202;9.876;2023-02-28T08:15:52;12.80;99.90
13673;DHT22;6909;52.202;9.876;2023-02-28T08:18:19;12.90;99.90
13673;DHT22;6909;52.202;9.876;2023-02-28T08:20:46;13.00;99.90
13673;DHT22;6909;52.202;9.876;2023-02-28T08:23:12;12.40;99.90
13673;DHT22;6909;52.202;9.876;2023-02-28T08:25:41;11.60;99.90
13673;DHT22;6909;52.202;9.876;2023-02-28T08:28:07;11.10;99.90
13673;DHT22;6909;52.202;9.876;2023-02-28T08:30:34;9.60;99.90
13673;DHT22;6909;52.202;9.876;2023-02-28T08:33:00;7.80;99.90
13673;DHT22;6909;52.202;9.876;2023-02-28T08:35:28;8.10;99.90
13673;DHT22;6909;52.202;9.876;2023-02-28T08:37:54;6.50;99.90
13673;DHT22;6909;52.202;9.876;2023-02-28T08:40:21;6.50;99.90
13673;DHT22;6909;52.202;9.876;2023-02-28T08:42:49;6.30;99.90
13673;DHT22;6909;52.202;9.876;2023-02-28T08:45:16;5.70;1.00
13673;DHT22;6909;52.202;9.876;2023-02-28T08:47:42;4.90;1.00
13673;DHT22;6909;52.202;9.876;2023-02-28T08:50:10;4.70;1.00
13673;DHT22;6909;52.202;9.876;2023-02-28T08:52:36;4.70;1.00
13673;DHT22;6909;52.202;9.876;2023-02-28T08:55:04;4.40;1.00
13673;DHT22;6909;52.202;9.876;2023-02-28T08:57:30;4.10;1.00
13673;DHT22;6909;52.202;9.876;2023-02-28T08:59:59;4.10;1.00
13673;DHT22;6909;52.202;9.876;2023-02-28T09:02:27;3.80;1.00
13673;DHT22;6909;52.202;9.876;2023-02-28T09:04:53;4.20;1.00
13673;DHT22;6909;52.202;9.876;2023-02-28T09:07:20;4.20;1.00
13673;DHT22;6909;52.202;9.876;2023-02-28T09:09:47;4.40;1.00
13673;DHT22;6909;52.202;9.876;2023-02-28T09:12:24;4.80;1.00
13673;DHT22;6909;52.202;9.876;2023-02-28T09:14:51;4.70;1.00
13673;DHT22;6909;52.202;9.876;2023-02-28T09:17:19;3.80;1.00
13673;DHT22;6909;52.202;9.876;2023-02-28T09:19:47;3.60;1.00
13673;DHT22;6909;52.202;9.876;2023-02-28T09:22:14;3.70;1.00
13673;DHT22;6909;52.202;9.876;2023-02-28T09:24:42;3.70;1.00
13673;DHT22;6909;52.202;9.876;2023-02-28T09:27:09;3.60;1.00
13673;DHT22;6909;52.202;9.876;2023-02-28T09:29:37;3.60;1.00
13673;DHT22;6909;52.202;9.876;2023-02-28T09:32:04;3.60;1.00
13673;DHT22;6909;52.202;9.876;2023-02-28T09:34:32;3.70;1.00
13673;DHT22;6909;52.202;9.876;2023-02-28T09:36:59;4.20;1.00
13673;DHT22;6909;52.202;9.876;2023-02-28T09:39:26;3.90;1.00
13673;DHT22;6909;52.202;9.876;2023-02-28T09:41:55;3.80;1.00
13673;DHT22;6909;52.202;9.876;2023-02-28T09:44:28;3.60;1.00
13673;DHT22;6909;52.202;9.876;2023-02-28T09:46:57;3.40;1.00
13673;DHT22;6909;52.202;9.876;2023-02-28T09:49:33;3.60;1.00
13673;DHT22;6909;52.202;9.876;2023-02-28T09:52:03;3.70;1.00
13673;DHT22;6909;52.202;9.876;2023-02-28T09:54:32;3.90;1.00
13673;DHT22;6909;52.202;9.876;2023-02-28T09:57:04;4.00;1.00
13673;DHT22;6909;52.202;9.876;2023-02-28T09:59:43;4.00;1.00
13673;DHT22;6909;52.202;9.876;2023-02-28T10:05:04;4.00;1.00
13673;DHT22;6909;52.202;9.876;2023-02-28T10:07:46;3.90;1.00
13673;DHT22;6909;52.202;9.876;2023-02-28T10:10:22;3.90;1.00
13673;DHT22;6909;52.202;9.876;2023-02-28T10:12:53;3.90;1.00
13673;DHT22;6909;52.202;9.876;2023-02-28T10:15:23;3.80;1.00
13673;DHT22;6909;52.202;9.876;2023-02-28T10:17:54;4.00;1.00
13673;DHT22;6909;52.202;9.876;2023-02-28T10:20:25;3.80;1.00
13673;DHT22;6909;52.202;9.876;2023-02-28T10:22:58;3.80;1.00
13673;DHT22;6909;52.202;9.876;2023-02-28T10:25:32;4.00;1.00
13673;DHT22;6909;52.202;9.876;2023-02-28T10:28:09;4.10;1.00
13673;DHT22;6909;52.202;9.876;2023-02-28T10:30:38;4.20;1.00
13673;DHT22;6909;52.202;9.876;2023-02-28T10:33:08;4.40;1.00
13673;DHT22;6909;52.202;9.876;2023-02-28T10:35:42;4.20;1.00
13673;DHT22;6909;52.202;9.876;2023-02-28T10:38:16;4.10;1.00
13673;DHT22;6909;52.202;9.876;2023-02-28T10:40:43;4.00;1.00
13673;DHT22;6909;52.202;9.876;2023-02-28T10:43:19;4.10;1.00
13673;DHT22;6909;52.202;9.876;2023-02-28T10:45:55;4.00;1.00
13673;DHT22;6909;52.202;9.876;2023-02-28T10:48:37;3.90;1.00
13673;DHT22;6909;52.202;9.876;2023-02-28T10:51:07;3.80;1.00
13673;DHT22;6909;52.202;9.876;2023-02-28T10:53:38;3.90;1.00
13673;DHT22;6909;52.202;9.876;2023-02-28T10:56:14;3.80;1.00
13673;DHT22;6909;52.202;9.876;2023-02-28T10:58:53;3.90;1.00
13673;DHT22;6909;52.202;9.876;2023-02-28T11:01:22;4.00;1.00
13673;DHT22;6909;52.202;9.876;2023-02-28T11:03:49;4.20;1.00
13673;DHT22;6909;52.202;9.876;2023-02-28T11:06:19;4.50;1.00
13673;DHT22;6909;52.202;9.876;2023-02-28T11:08:50;4.70;1.00
13673;DHT22;6909;52.202;9.876;2023-02-28T11:11:18;4.60;1.00
13673;DHT22;6909;52.202;9.876;2023-02-28T11:13:48;4.60;1.00
13673;DHT22;6909;52.202;9.876;2023-02-28T11:16:16;4.60;1.00
13673;DHT22;6909;52.202;9.876;2023-02-28T11:18:47;5.10;1.00
13673;DHT22;6909;52.202;9.876;2023-02-28T11:21:25;5.20;1.00
13673;DHT22;6909;52.202;9.876;2023-02-28T11:23:56;5.40;1.00
13673;DHT22;6909;52.202;9.876;2023-02-28T11:26:37;5.00;1.00
13673;DHT22;6909;52.202;9.876;2023-02-28T11:29:11;5.50;1.00
13673;DHT22;6909;52.202;9.876;2023-02-28T11:31:38;6.00;1.00
13673;DHT22;6909;52.202;9.876;2023-02-28T11:34:22;5.90;1.00
13673;DHT22;6909;52.202;9.876;2023-02-28T11:36:51;5.40;1.00
13673;DHT22;6909;52.202;9.876;2023-02-28T11:39:19;4.40;1.00
13673;DHT22;6909;52.202;9.876;2023-02-28T11:42:11;4.10;1.00
13673;DHT22;6909;52.202;9.876;2023-02-28T11:44:49;3.90;1.00
13673;DHT22;6909;52.202;9.876;2023-02-28T11:47:28;3.80;1.00
13673;DHT22;6909;52.202;9.876;2023-02-28T11:50:13;3.80;1.00
13673;DHT22;6909;52.202;9.876;2023-02-28T11:52:48;3.90;1.00
13673;DHT22;6909;52.202;9.876;2023-02-28T11:55:20;3.90;1.00
13673;DHT22;6909;52.202;9.876;2023-02-28T11:58:00;4.10;1.00
13673;DHT22;6909;52.202;9.876;2023-02-28T12:00:39;4.40;1.00
13673;DHT22;6909;52.202;9.876;2023-02-28T12:03:16;4.80;1.00
13673;DHT22;6909;52.202;9.876;2023-02-28T12:05:45;4.90;1.00
13673;DHT22;6909;52.202;9.876;2023-02-28T12:08:26;5.20;1.00
13673;DHT22;6909;52.202;9.876;2023-02-28T12:11:03;5.00;1.00
13673;DHT22;6909;52.202;9.876;2023-02-28T12:13:38;5.10;1.00
13673;DHT22;6909;52.202;9.876;2023-02-28T12:16:34;5.20;1.00
13673;DHT22;6909;52.202;9.876;2023-02-28T12:19:16;5.10;1.00
13673;DHT22;6909;52.202;9.876;2023-02-28T12:22:11;5.30;1.00
13673;DHT22;6909;52.202;9.876;2023-02-28T12:27:42;5.10;1.00
13673;DHT22;6909;52.202;9.876;2023-02-28T12:30:16;5.00;1.00
13673;DHT22;6909;52.202;9.876;2023-02-28T12:32:46;4.70;99.90
13673;DHT22;6909;52.202;9.876;2023-02-28T12:35:17;4.60;99.90
13673;DHT22;6909;52.202;9.876;2023-02-28T12:37:49;4.30;99.90
13673;DHT22;6909;52.202;9.876;2023-02-28T12:40:20;4.40;99.90
13673;DHT22;6909;52.202;9.876;2023-02-28T12:42:51;4.50;99.90
13673;DHT22;6909;52.202;9.876;2023-02-28T12:45:21;4.40;99.90
13673;DHT22;6909;52.202;9.876;2023-02-28T12:47:52;4.50;99.90
13673;DHT22;6909;52.202;9.876;2023-02-28T12:50:24;4.40;99.90
13673;DHT22;6909;52.202;9.876;2023-02-28T12:52:54;4.40;99.90
13673;DHT22;6909;52.202;9.876;2023-02-28T12:55:29;4.30;99.90
13673;DHT22;6909;52.202;9.876;2023-02-28T12:58:02;4.50;99.90
13673;DHT22;6909;52.202;9.876;2023-02-28T13:00:35;4.50;99.90
13673;DHT22;6909;52.202;9.876;2023-02-28T13:03:27;4.50;99.90
13673;DHT22;6909;52.202;9.876;2023-02-28T13:06:20;4.40;99.90
13673;DHT22;6909;52.202;9.876;2023-02-28T13:09:05;4.20;99.90
13673;DHT22;6909;52.202;9.876;2023-02-28T13:11:41;4.10;99.90
13673;DHT22;6909;52.202;9.876;2023-02-28T13:14:23;4.00;99.90
13673;DHT22;6909;52.202;9.876;2023-02-28T13:16:57;3.90;99.90
13673;DHT22;6909;52.202;9.876;2023-02-28T13:19:27;3.80;99.90
13673;DHT22;6909;52.202;9.876;2023-02-28T13:21:55;3.80;99.90
13673;DHT22;6909;52.202;9.876;2023-02-28T13:24:42;3.90;99.90
13673;DHT22;6909;52.202;9.876;2023-02-28T13:27:38;3.80;99.90
13673;DHT22;6909;52.202;9.876;2023-02-28T13:33:24;3.80;99.90
13673;DHT22;6909;52.202;9.876;2023-02-28T13:36:07;3.90;99.90
13673;DHT22;6909;52.202;9.876;2023-02-28T13:39:00;3.90;99.90
13673;DHT22;6909;52.202;9.876;2023-02-28T13:41:46;4.20;99.90
13673;DHT22;6909;52.202;9.876;2023-02-28T13:44:16;4.30;99.90
13673;DHT22;6909;52.202;9.876;2023-02-28T13:47:22;4.30;99.90
13673;DHT22;6909;52.202;9.876;2023-02-28T13:49:51;4.30;99.90
13673;DHT22;6909;52.202;9.876;2023-02-28T13:52:23;4.40;99.90
13673;DHT22;6909;52.202;9.876;2023-02-28T13:55:12;4.30;99.90
13673;DHT22;6909;52.202;9.876;2023-02-28T13:58:02;4.30;99.90
13673;DHT22;6909;52.202;9.876;2023-02-28T14:00:45;4.30;99.90
13673;DHT22;6909;52.202;9.876;2023-02-28T14:03:32;4.30;99.90
13673;DHT22;6909;52.202;9.876;2023-02-28T14:06:21;4.30;99.90
13673;DHT22;6909;52.202;9.876;2023-02-28T14:08:55;4.20;99.90
13673;DHT22;6909;52.202;9.876;2023-02-28T14:11:31;4.30;99.90
13673;DHT22;6909;52.202;9.876;2023-02-28T14:13:58;4.40;99.90
13673;DHT22;6909;52.202;9.876;2023-02-28T14:16:36;4.50;99.90
13673;DHT22;6909;52.202;9.876;2023-02-28T14:19:11;4.40;99.90
13673;DHT22;6909;52.202;9.876;2023-02-28T14:21:46;4.40;99.90
13673;DHT22;6909;52.202;9.876;2023-02-28T14:24:42;4.60;99.90
13673;DHT22;6909;52.202;9.876;2023-02-28T14:27:32;4.60;99.90
13673;DHT22;6909;52.202;9.876;2023-02-28T14:33:11;4.40;99.90
13673;DHT22;6909;52.202;9.876;2023-02-28T14:35:52;4.50;99.90
13673;DHT22;6909;52.202;9.876;2023-02-28T14:38:27;4.60;99.90
13673;DHT22;6909;52.202;9.876;2023-02-28T14:40:56;4.80;99.90
13673;DHT22;6909;52.202;9.876;2023-02-28T14:43:27;4.70;99.90
13673;DHT22;6909;52.202;9.876;2023-02-28T14:45:56;4.80;99.90
13673;DHT22;6909;52.202;9.876;2023-02-28T14:48:25;4.70;99.90
13673;DHT22;6909;52.202;9.876;2023-02-28T14:50:55;4.60;99.90
13673;DHT22;6909;52.202;9.876;2023-02-28T14:53:25;4.60;99.90
13673;DHT22;6909;52.202;9.876;2023-02-28T14:55:52;4.70;99.90
13673;DHT22;6909;52.202;9.876;2023-02-28T14:58:25;4.70;99.90
13673;DHT22;6909;52.202;9.876;2023-02-28T15:00:54;4.60;99.90
13673;DHT22;6909;52.202;9.876;2023-02-28T15:03:22;4.60;99.90
13673;DHT22;6909;52.202;9.876;2023-02-28T15:05:55;4.60;99.90
13673;DHT22;6909;52.202;9.876;2023-02-28T15:08:23;4.70;99.90
13673;DHT22;6909;52.202;9.876;2023-02-28T15:10:54;4.70;99.90
13673;DHT22;6909;52.202;9.876;2023-02-28T15:13:22;4.70;99.90
13673;DHT22;6909;52.202;9.876;2023-02-28T15:15:52;4.70;99.90
13673;DHT22;6909;52.202;9.876;2023-02-28T15:18:27;4.80;99.90
13673;DHT22;6909;52.202;9.876;2023-02-28T15:20:57;4.70;99.90
13673;DHT22;6909;52.202;9.876;2023-02-28T15:23:25;4.60;99.90
13673;DHT22;6909;52.202;9.876;2023-02-28T15:25:53;4.60;99.90
13673;DHT22;6909;52.202;9.876;2023-02-28T15:28:21;4.60;99.90
13673;DHT22;6909;52.202;9.876;2023-02-28T15:30:55;4.50;99.90
13673;DHT22;6909;52.202;9.876;2023-02-28T15:33:24;4.50;99.90
13673;DHT22;6909;52.202;9.876;2023-02-28T15:36:02;4.40;99.90
13673;DHT22;6909;52.202;9.876;2023-02-28T15:38:34;4.40;99.90
13673;DHT22;6909;52.202;9.876;2023-02-28T15:41:00;4.50;99.90
13673;DHT22;6909;52.202;9.876;2023-02-28T15:43:29;4.40;99.90
13673;DHT22;6909;52.202;9.876;2023-02-28T15:45:58;4.40;99.90
13673;DHT22;6909;52.202;9.876;2023-02-28T15:48:28;4.30;99.90
13673;DHT22;6909;52.202;9.876;2023-02-28T15:50:57;4.30;99.90
13673;DHT22;6909;52.202;9.876;2023-02-28T15:53:32;4.30;99.90
13673;DHT22;6909;52.202;9.876;2023-02-28T15:56:02;4.40;99.90
13673;DHT22;6909;52.202;9.876;2023-02-28T15:58:29;4.30;99.90
13673;DHT22;6909;52.202;9.876;2023-02-28T16:01:06;4.30;99.90
13673;DHT22;6909;52.202;9.876;2023-02-28T16:03:40;4.20;99.90
13673;DHT22;6909;52.202;9.876;2023-02-28T16:06:32;4.10;99.90
13673;DHT22;6909;52.202;9.876;2023-02-28T16:09:00;4.10;99.90
13673;DHT22;6909;52.202;9.876;2023-02-28T16:11:27;4.10;99.90
13673;DHT22;6909;52.202;9.876;2023-02-28T16:13:54;4.00;99.90
13673;DHT22;6909;52.202;9.876;2023-02-28T16:16:23;4.10;99.90
13673;DHT22;6909;52.202;9.876;2023-02-28T16:18:51;3.90;99.90
13673;DHT22;6909;52.202;9.876;2023-02-28T16:21:17;3.80;99.90
13673;DHT22;6909;52.202;9.876;2023-02-28T16:23:44;3.70;99.90
13673;DHT22;6909;52.202;9.876;2023-02-28T16:26:18;3.70;99.90
13673;DHT22;6909;52.202;9.876;2023-02-28T16:28:46;3.60;99.90
13673;DHT22;6909;52.202;9.876;2023-02-28T16:31:12;3.50;99.90
13673;DHT22;6909;52.202;9.876;2023-02-28T16:33:42;3.50;99.90
13673;DHT22;6909;52.202;9.876;2023-02-28T16:36:12;3.50;99.90
13673;DHT22;6909;52.202;9.876;2023-02-28T16:38:39;3.50;99.90
13673;DHT22;6909;52.202;9.876;2023-02-28T16:41:06;3.40;99.90
13673;DHT22;6909;52.202;9.876;2023-02-28T16:43:34;3.50;99.90
13673;DHT22;6909;52.202;9.876;2023-02-28T16:46:00;3.50;99.10